createdAt,value
2019-06-26T00:02:04.055Z,24.50
2019-06-26T00:04:32.939Z,24.40
2019-06-26T00:07:01.965Z,24.40
2019-06-26T00:09:30.999Z,24.40
2019-06-26T00:11:59.922Z,24.30
2019-06-26T00:14:28.506Z,24.30
2019-06-26T00:16:57.106Z,24.30
2019-06-26T00:19:26.084Z,24.20
2019-06-26T00:21:54.974Z,24.20
2019-06-26T00:24:23.867Z,24.20
2019-06-26T00:26:53.068Z,24.20
2019-06-26T00:29:21.650Z,24.20
2019-06-26T00:31:50.254Z,24.10
2019-06-26T00:34:18.921Z,24.10
2019-06-26T00:36:47.562Z,24.00
2019-06-26T00:39:16.209Z,24.00
2019-06-26T00:41:44.890Z,24.00
2019-06-26T00:44:13.573Z,23.90
2019-06-26T00:46:42.574Z,23.90
2019-06-26T00:49:11.246Z,23.80
2019-06-26T00:51:39.859Z,23.80
2019-06-26T00:54:08.565Z,23.70
2019-06-26T00:56:37.508Z,23.70
2019-06-26T00:59:06.102Z,23.70
2019-06-26T01:01:34.798Z,23.60
2019-06-26T01:04:08.456Z,23.60
2019-06-26T01:06:44.241Z,23.60
2019-06-26T01:09:13.727Z,23.60
2019-06-26T01:11:42.626Z,23.50
2019-06-26T01:14:11.632Z,23.50
2019-06-26T01:16:40.614Z,23.50
2019-06-26T01:19:09.514Z,23.50
2019-06-26T01:21:38.201Z,23.40
2019-06-26T01:24:07.192Z,23.40
2019-06-26T01:26:36.284Z,23.40
2019-06-26T01:29:05.033Z,23.40
2019-06-26T01:31:33.654Z,23.30
2019-06-26T01:34:02.541Z,23.30
2019-06-26T01:36:31.433Z,23.30
2019-06-26T01:39:00.050Z,23.30
2019-06-26T01:41:28.748Z,23.30
2019-06-26T01:44:13.325Z,23.20
2019-06-26T01:46:28.336Z,23.20
2019-06-26T01:48:56.911Z,23.20
2019-06-26T01:51:25.737Z,23.10
2019-06-26T01:53:54.713Z,23.20
2019-06-26T01:56:23.381Z,23.20
2019-06-26T01:58:51.977Z,23.10
2019-06-26T02:01:20.930Z,23.10
2019-06-26T02:03:49.564Z,23.10
2019-06-26T02:06:18.229Z,23.10
2019-06-26T02:08:47.535Z,23.10
2019-06-26T02:11:16.326Z,23.10
2019-06-26T02:13:44.994Z,23.00
2019-06-26T02:16:13.697Z,23.00
2019-06-26T02:18:46.666Z,23.00
2019-06-26T02:21:15.570Z,22.90
2019-06-26T02:23:44.719Z,22.90
2019-06-26T02:26:13.381Z,22.90
2019-06-26T02:28:42.345Z,22.90
2019-06-26T02:31:11.105Z,22.90
2019-06-26T02:33:40.134Z,22.80
2019-06-26T02:36:08.954Z,22.90
2019-06-26T02:38:38.218Z,22.90
2019-06-26T02:41:07.413Z,22.90
2019-06-26T02:43:36.323Z,22.80
2019-06-26T02:46:05.858Z,22.80
2019-06-26T02:48:34.725Z,22.80
2019-06-26T02:51:03.699Z,22.80
2019-06-26T02:53:32.898Z,22.80
2019-06-26T02:56:02.094Z,22.70
2019-06-26T02:58:31.296Z,22.70
2019-06-26T03:00:59.914Z,22.70
2019-06-26T03:03:28.825Z,22.70
2019-06-26T03:05:57.449Z,22.60
2019-06-26T03:08:26.667Z,22.60
2019-06-26T03:10:55.237Z,22.60
2019-06-26T03:13:24.137Z,22.60
2019-06-26T03:15:52.959Z,22.60
2019-06-26T03:18:21.604Z,22.60
2019-06-26T03:20:53.761Z,22.60
2019-06-26T03:23:23.272Z,22.60
2019-06-26T03:25:51.866Z,22.60
2019-06-26T03:28:20.750Z,22.60
2019-06-26T03:30:49.346Z,22.60
2019-06-26T03:33:17.916Z,22.50
2019-06-26T03:35:46.507Z,22.50
2019-06-26T03:38:15.089Z,22.40
2019-06-26T03:40:43.722Z,22.40
2019-06-26T03:43:12.969Z,22.30
2019-06-26T03:45:41.603Z,22.30
2019-06-26T03:48:10.794Z,22.30
2019-06-26T03:50:39.385Z,22.30
2019-06-26T03:53:08.638Z,22.30
2019-06-26T03:55:37.838Z,22.30
2019-06-26T03:58:06.461Z,22.20
2019-06-26T04:00:38.726Z,22.20
2019-06-26T04:03:07.637Z,22.20
2019-06-26T04:05:36.585Z,22.10
2019-06-26T04:08:05.776Z,22.20
2019-06-26T04:10:34.546Z,22.10
2019-06-26T04:13:03.354Z,22.10
2019-06-26T04:15:41.942Z,22.10
2019-06-26T04:18:03.257Z,22.20
2019-06-26T04:20:32.893Z,22.20
2019-06-26T04:23:01.786Z,22.20
2019-06-26T04:25:30.377Z,22.30
2019-06-26T04:27:59.362Z,22.30
2019-06-26T04:30:28.576Z,22.30
2019-06-26T04:32:57.555Z,22.40
2019-06-26T04:35:26.754Z,22.40
2019-06-26T04:37:55.565Z,22.40
2019-06-26T04:40:24.471Z,22.40
2019-06-26T04:42:53.425Z,22.40
2019-06-26T04:45:22.317Z,22.40
2019-06-26T04:47:51.214Z,22.40
2019-06-26T04:50:20.228Z,22.40
2019-06-26T04:52:48.892Z,22.50
2019-06-26T04:55:17.877Z,22.50
2019-06-26T04:57:46.693Z,22.50
2019-06-26T05:00:15.354Z,22.60
2019-06-26T05:02:44.153Z,22.80
2019-06-26T05:05:12.812Z,22.90
2019-06-26T05:07:41.724Z,23.00
2019-06-26T05:10:10.709Z,23.10
2019-06-26T05:12:40.161Z,23.20
2019-06-26T05:15:09.113Z,23.20
2019-06-26T05:17:37.817Z,23.30
2019-06-26T05:20:07.450Z,23.30
2019-06-26T05:22:36.414Z,23.30
2019-06-26T05:25:05.393Z,23.40
2019-06-26T05:27:34.301Z,23.40
2019-06-26T05:30:02.989Z,23.50
2019-06-26T05:32:31.986Z,23.50
2019-06-26T05:35:00.951Z,23.60
2019-06-26T05:37:29.532Z,23.60
2019-06-26T05:39:58.430Z,23.70
2019-06-26T05:42:27.641Z,23.70
2019-06-26T05:44:56.224Z,23.80
2019-06-26T05:47:28.481Z,23.80
2019-06-26T05:49:57.070Z,23.90
2019-06-26T05:52:25.959Z,23.90
2019-06-26T05:54:55.048Z,23.90
2019-06-26T05:57:23.650Z,23.90
2019-06-26T05:59:52.433Z,24.00
2019-06-26T06:02:21.729Z,24.00
2019-06-26T06:04:50.329Z,24.00
2019-06-26T06:07:20.053Z,24.10
2019-06-26T06:09:49.024Z,24.20
2019-06-26T06:12:17.925Z,24.20
2019-06-26T06:14:46.989Z,24.20
2019-06-26T06:17:16.017Z,24.30
2019-06-26T06:19:45.678Z,24.40
2019-06-26T06:22:14.739Z,24.50
2019-06-26T06:24:43.696Z,24.50
2019-06-26T06:27:12.586Z,24.60
2019-06-26T06:29:41.918Z,24.60
2019-06-26T06:32:11.502Z,24.70
2019-06-26T06:34:40.388Z,24.70
2019-06-26T06:37:09.112Z,24.90
2019-06-26T06:39:38.050Z,24.90
2019-06-26T06:42:06.647Z,25.10
2019-06-26T06:44:35.246Z,25.10
2019-06-26T06:47:05.692Z,25.20
2019-06-26T06:49:35.167Z,25.20
2019-06-26T06:52:04.605Z,25.30
2019-06-26T06:54:33.494Z,25.30
2019-06-26T06:57:02.133Z,25.50
2019-06-26T06:59:31.247Z,25.60
2019-06-26T07:02:00.154Z,25.70
2019-06-26T07:04:29.400Z,25.80
2019-06-26T07:06:58.879Z,25.80
2019-06-26T07:09:27.953Z,25.90
2019-06-26T07:11:57.082Z,26.00
2019-06-26T07:14:25.717Z,26.00
2019-06-26T07:16:54.564Z,26.00
2019-06-26T07:19:23.206Z,26.10
2019-06-26T07:21:52.181Z,26.20
2019-06-26T07:24:20.801Z,26.20
2019-06-26T07:26:49.710Z,26.30
2019-06-26T07:29:18.858Z,26.30
2019-06-26T07:31:47.644Z,26.40
2019-06-26T07:34:16.777Z,26.50
2019-06-26T07:36:45.424Z,26.60
2019-06-26T07:39:14.037Z,26.70
2019-06-26T07:41:43.069Z,26.80
2019-06-26T07:44:12.305Z,26.90
2019-06-26T07:46:41.306Z,27.00
2019-06-26T07:49:10.129Z,27.10
2019-06-26T07:51:39.000Z,27.20
2019-06-26T07:54:08.149Z,27.20
2019-06-26T07:56:38.413Z,27.30
2019-06-26T07:59:07.398Z,27.40
2019-06-26T08:01:36.008Z,27.50
2019-06-26T08:04:04.656Z,27.70
2019-06-26T08:06:33.246Z,27.70
2019-06-26T08:09:02.158Z,27.80
2019-06-26T08:11:31.549Z,27.90
2019-06-26T08:14:00.659Z,27.90
2019-06-26T08:16:29.650Z,28.00
2019-06-26T08:18:58.310Z,28.00
2019-06-26T08:21:26.912Z,28.20
2019-06-26T08:23:55.581Z,28.30
2019-06-26T08:26:24.203Z,28.40
2019-06-26T08:28:53.478Z,28.40
2019-06-26T08:31:22.877Z,28.50
2019-06-26T08:33:52.073Z,28.60
2019-06-26T08:36:20.980Z,28.70
2019-06-26T08:38:49.952Z,28.90
2019-06-26T08:41:18.836Z,29.00
2019-06-26T08:43:47.743Z,29.20
2019-06-26T08:46:16.337Z,29.30
2019-06-26T08:48:45.311Z,29.50
2019-06-26T08:51:14.448Z,29.60
2019-06-26T08:53:43.408Z,29.70
2019-06-26T08:56:12.610Z,29.70
2019-06-26T08:58:41.199Z,29.90
2019-06-26T09:01:09.797Z,29.90
2019-06-26T09:03:41.952Z,30.10
2019-06-26T09:06:09.502Z,30.20
2019-06-26T09:08:38.400Z,30.20
2019-06-26T09:11:06.990Z,30.30
2019-06-26T09:13:36.209Z,30.40
2019-06-26T09:16:04.870Z,30.60
2019-06-26T09:18:36.141Z,30.70
2019-06-26T09:21:04.704Z,30.90
2019-06-26T09:23:33.898Z,31.00
2019-06-26T09:26:02.793Z,31.10
2019-06-26T09:28:32.290Z,31.20
2019-06-26T09:31:01.794Z,31.30
2019-06-26T09:33:32.421Z,31.50
2019-06-26T09:36:01.017Z,31.60
2019-06-26T09:38:30.314Z,31.70
2019-06-26T09:40:59.265Z,31.80
2019-06-26T09:43:28.605Z,31.80
2019-06-26T09:45:58.375Z,31.90
2019-06-26T09:48:27.622Z,32.10
2019-06-26T09:50:56.559Z,32.30
2019-06-26T09:53:25.719Z,32.40
2019-06-26T09:55:54.787Z,32.50
2019-06-26T09:58:23.705Z,32.60
2019-06-26T10:00:52.676Z,32.80
2019-06-26T10:03:21.513Z,32.90
2019-06-26T10:05:50.158Z,33.00
2019-06-26T10:08:19.049Z,33.20
2019-06-26T10:10:47.989Z,33.40
2019-06-26T10:13:16.624Z,33.60
2019-06-26T10:15:45.447Z,33.80
2019-06-26T10:18:14.504Z,34.00
2019-06-26T10:20:43.715Z,34.10
2019-06-26T10:23:12.541Z,34.20
2019-06-26T10:25:41.826Z,34.30
2019-06-26T10:28:11.004Z,34.50
2019-06-26T10:30:39.671Z,34.60
2019-06-26T10:33:08.424Z,34.70
2019-06-26T10:35:37.050Z,34.90
2019-06-26T10:38:05.938Z,35.10
2019-06-26T10:40:34.869Z,35.20
2019-06-26T10:43:03.769Z,35.30
2019-06-26T10:45:35.962Z,35.50
2019-06-26T10:48:03.037Z,35.50
2019-06-26T10:50:31.908Z,35.50
2019-06-26T10:53:01.158Z,35.40
2019-06-26T10:55:30.451Z,35.60
2019-06-26T10:57:59.334Z,35.90
2019-06-26T11:00:28.381Z,36.10
2019-06-26T11:02:57.626Z,36.30
2019-06-26T11:05:26.199Z,36.40
2019-06-26T11:07:55.105Z,36.40
2019-06-26T11:10:23.717Z,36.40
2019-06-26T11:12:52.686Z,36.60
2019-06-26T11:15:21.256Z,36.60
2019-06-26T11:17:49.885Z,36.70
2019-06-26T11:20:19.557Z,36.80
2019-06-26T11:22:48.453Z,36.90
2019-06-26T11:25:18.041Z,37.10
2019-06-26T11:27:46.958Z,37.30
2019-06-26T11:30:15.979Z,37.50
2019-06-26T11:32:44.635Z,37.90
2019-06-26T11:35:13.843Z,38.10
2019-06-26T11:37:42.413Z,38.30
2019-06-26T11:40:11.029Z,38.40
2019-06-26T11:42:40.289Z,38.30
2019-06-26T11:45:09.442Z,38.40
2019-06-26T11:47:38.686Z,38.50
2019-06-26T11:50:08.049Z,38.70
2019-06-26T11:52:36.981Z,39.00
2019-06-26T11:55:06.356Z,39.20
2019-06-26T11:57:35.070Z,39.30
2019-06-26T12:00:04.610Z,39.30
2019-06-26T12:02:33.258Z,39.40
2019-06-26T12:05:02.501Z,39.50
2019-06-26T12:07:31.532Z,39.70
2019-06-26T12:10:00.735Z,39.90
2019-06-26T12:12:29.541Z,40.10
2019-06-26T12:14:58.445Z,40.30
2019-06-26T12:17:27.122Z,40.30
2019-06-26T12:19:57.142Z,40.20
2019-06-26T12:22:26.345Z,40.30
2019-06-26T12:24:55.230Z,40.30
2019-06-26T12:27:24.224Z,40.50
2019-06-26T12:29:55.187Z,40.50
2019-06-26T12:32:24.157Z,40.70
2019-06-26T12:34:53.358Z,40.70
2019-06-26T12:37:36.638Z,40.60
2019-06-26T12:39:53.017Z,40.50
2019-06-26T12:42:22.494Z,40.40
2019-06-26T12:44:51.601Z,40.40
2019-06-26T12:47:21.219Z,40.60
2019-06-26T12:49:50.557Z,40.70
2019-06-26T12:52:19.484Z,40.90
2019-06-26T12:54:48.387Z,40.90
2019-06-26T12:57:17.274Z,41.00
2019-06-26T12:59:56.867Z,41.10
2019-06-26T13:02:16.896Z,41.00
2019-06-26T13:04:45.805Z,41.00
2019-06-26T13:07:14.871Z,41.10
2019-06-26T13:09:44.484Z,41.10
2019-06-26T13:12:13.498Z,41.00
2019-06-26T13:14:42.414Z,40.90
2019-06-26T13:17:11.074Z,40.90
2019-06-26T13:19:40.064Z,40.80
2019-06-26T13:22:09.251Z,40.80
2019-06-26T13:24:38.457Z,40.80
2019-06-26T13:27:07.893Z,40.80
2019-06-26T13:29:36.855Z,40.90
2019-06-26T13:32:05.529Z,40.90
2019-06-26T13:34:34.191Z,40.90
2019-06-26T13:37:07.234Z,40.90
2019-06-26T13:39:34.665Z,40.80
2019-06-26T13:42:03.552Z,40.80
2019-06-26T13:44:32.761Z,40.90
2019-06-26T13:47:02.223Z,40.90
2019-06-26T13:49:30.846Z,41.00
2019-06-26T13:52:00.148Z,41.10
2019-06-26T13:54:28.701Z,41.20
2019-06-26T13:56:57.619Z,41.30
2019-06-26T13:59:26.922Z,41.40
2019-06-26T14:01:55.774Z,41.50
2019-06-26T14:04:24.466Z,41.30
2019-06-26T14:06:53.386Z,41.30
2019-06-26T14:09:22.490Z,41.40
2019-06-26T14:11:51.682Z,41.50
2019-06-26T14:14:22.276Z,41.30
2019-06-26T14:16:51.428Z,41.20
2019-06-26T14:19:20.402Z,41.20
2019-06-26T14:21:49.853Z,41.30
2019-06-26T14:24:18.933Z,41.40
2019-06-26T14:26:48.101Z,41.50
2019-06-26T14:29:21.184Z,41.60
2019-06-26T14:31:47.846Z,41.50
2019-06-26T14:34:17.029Z,41.60
2019-06-26T14:36:46.537Z,41.70
2019-06-26T14:39:15.736Z,41.80
2019-06-26T14:41:45.233Z,41.70
2019-06-26T14:44:14.322Z,41.60
2019-06-26T14:46:43.444Z,41.60
2019-06-26T14:49:12.838Z,41.80
2019-06-26T14:51:47.170Z,41.90
2019-06-26T14:54:12.148Z,41.90
2019-06-26T14:56:41.037Z,41.80
2019-06-26T14:59:10.457Z,41.80
2019-06-26T15:01:39.145Z,41.80
2019-06-26T15:04:08.433Z,41.90
2019-06-26T15:06:37.849Z,41.90
2019-06-26T15:09:06.808Z,41.90
2019-06-26T15:11:36.033Z,41.90
2019-06-26T15:14:04.919Z,42.00
2019-06-26T15:16:34.117Z,42.00
2019-06-26T15:19:03.318Z,42.00
2019-06-26T15:21:32.541Z,41.90
2019-06-26T15:24:01.514Z,41.80
2019-06-26T15:26:30.806Z,41.80
2019-06-26T15:29:00.098Z,41.70
2019-06-26T15:31:29.103Z,41.60
2019-06-26T15:33:58.113Z,41.60
2019-06-26T15:36:27.291Z,41.60
2019-06-26T15:38:59.153Z,41.60
2019-06-26T15:41:27.285Z,41.20
2019-06-26T15:43:56.386Z,41.20
2019-06-26T15:46:25.008Z,41.20
2019-06-26T15:48:54.437Z,41.30
2019-06-26T15:51:23.086Z,41.30
2019-06-26T15:53:51.994Z,41.30
2019-06-26T15:56:21.200Z,41.40
2019-06-26T15:58:51.021Z,41.50
2019-06-26T16:01:19.997Z,41.50
2019-06-26T16:03:48.834Z,41.40
2019-06-26T16:06:17.775Z,41.30
2019-06-26T16:08:46.684Z,41.20
2019-06-26T16:11:15.654Z,41.20
2019-06-26T16:13:45.425Z,41.10
2019-06-26T16:16:14.614Z,41.00
2019-06-26T16:18:48.109Z,40.80
2019-06-26T16:21:17.322Z,40.70
2019-06-26T16:23:46.267Z,40.70
2019-06-26T16:26:15.141Z,40.60
2019-06-26T16:28:44.581Z,40.60
2019-06-26T16:31:13.473Z,40.60
2019-06-26T16:33:42.751Z,40.30
2019-06-26T16:36:11.602Z,40.10
2019-06-26T16:38:40.527Z,40.00
2019-06-26T16:41:09.477Z,39.80
2019-06-26T16:43:38.718Z,39.50
2019-06-26T16:46:07.917Z,39.50
2019-06-26T16:48:36.808Z,39.40
2019-06-26T16:51:05.814Z,39.30
2019-06-26T16:53:35.701Z,39.30
2019-06-26T16:56:04.577Z,39.20
2019-06-26T16:58:33.703Z,39.10
2019-06-26T17:01:02.573Z,38.90
2019-06-26T17:03:31.789Z,38.60
2019-06-26T17:06:00.622Z,38.20
2019-06-26T17:08:30.350Z,37.90
2019-06-26T17:10:59.603Z,37.70
2019-06-26T17:13:28.931Z,37.50
2019-06-26T17:15:57.578Z,37.20
2019-06-26T17:18:27.233Z,37.10
2019-06-26T17:20:56.491Z,36.90
2019-06-26T17:23:25.390Z,36.70
2019-06-26T17:25:54.278Z,36.60
2019-06-26T17:28:23.185Z,36.50
2019-06-26T17:30:53.057Z,36.40
2019-06-26T17:33:22.343Z,36.30
2019-06-26T17:35:51.274Z,36.20
2019-06-26T17:38:20.774Z,36.10
2019-06-26T17:40:49.667Z,36.00
2019-06-26T17:43:18.716Z,36.00
2019-06-26T17:45:47.578Z,35.80
2019-06-26T17:48:16.950Z,35.70
2019-06-26T17:50:45.843Z,35.60
2019-06-26T17:53:21.760Z,35.50
2019-06-26T17:55:46.321Z,35.50
2019-06-26T17:58:15.689Z,35.40
2019-06-26T18:00:44.278Z,35.30
2019-06-26T18:03:13.262Z,35.20
2019-06-26T18:09:23.426Z,35.00
2019-06-26T18:11:52.326Z,34.90
2019-06-26T18:14:21.250Z,34.80
2019-06-26T18:16:50.220Z,34.70
2019-06-26T18:19:18.770Z,34.60
2019-06-26T18:21:47.710Z,34.60
2019-06-26T18:24:16.348Z,34.50
2019-06-26T18:26:49.580Z,34.50
2019-06-26T18:29:18.777Z,34.40
2019-06-26T18:31:47.390Z,34.30
2019-06-26T18:34:16.057Z,34.20
2019-06-26T18:36:45.043Z,34.10
2019-06-26T18:39:14.241Z,34.00
2019-06-26T18:41:42.840Z,34.00
2019-06-26T18:44:12.126Z,33.80
2019-06-26T18:46:40.750Z,33.70
2019-06-26T18:49:09.709Z,33.60
2019-06-26T18:51:38.312Z,33.50
2019-06-26T18:54:07.279Z,33.40
2019-06-26T18:56:36.177Z,33.30
2019-06-26T18:59:05.269Z,33.20
2019-06-26T19:01:34.182Z,33.10
2019-06-26T19:04:03.161Z,33.00
2019-06-26T19:06:32.154Z,32.90
2019-06-26T19:09:01.142Z,32.90
2019-06-26T19:11:30.537Z,32.90
2019-06-26T19:13:59.430Z,32.80
2019-06-26T19:16:28.754Z,32.80
2019-06-26T19:18:58.034Z,32.70
2019-06-26T19:21:26.931Z,32.60
2019-06-26T19:24:09.071Z,32.50
2019-06-26T19:26:26.958Z,32.40
2019-06-26T19:28:56.165Z,32.30
2019-06-26T19:31:25.149Z,32.30
2019-06-26T19:33:54.052Z,32.30
2019-06-26T19:36:25.034Z,32.20
2019-06-26T19:38:53.669Z,32.10
2019-06-26T19:41:22.861Z,32.10
2019-06-26T19:43:51.698Z,32.00
2019-06-26T19:46:20.645Z,32.00
2019-06-26T19:48:49.257Z,31.90
2019-06-26T19:51:17.979Z,31.80
2019-06-26T19:53:46.932Z,31.80
2019-06-26T19:56:15.613Z,31.70
2019-06-26T19:58:44.208Z,31.60
2019-06-26T20:01:13.180Z,31.50
2019-06-26T20:03:41.783Z,31.50
2019-06-26T20:06:10.462Z,31.50
2019-06-26T20:08:53.095Z,31.40
2019-06-26T20:11:10.073Z,31.30
2019-06-26T20:13:38.897Z,31.30
2019-06-26T20:16:07.567Z,31.30
2019-06-26T20:18:36.542Z,31.20
2019-06-26T20:21:05.515Z,31.20
2019-06-26T20:23:34.732Z,31.20
2019-06-26T20:26:03.592Z,31.10
2019-06-26T20:28:32.223Z,31.10
2019-06-26T20:31:00.918Z,31.10
2019-06-26T20:33:30.226Z,31.00
2019-06-26T20:35:58.881Z,31.00
2019-06-26T20:38:27.585Z,30.90
2019-06-26T20:40:56.569Z,30.90
2019-06-26T20:43:25.265Z,30.90
2019-06-26T20:45:54.237Z,30.80
2019-06-26T20:48:23.142Z,30.80
2019-06-26T20:50:52.146Z,30.70
2019-06-26T20:53:20.829Z,30.70
2019-06-26T20:55:49.513Z,30.60
2019-06-26T20:58:18.389Z,30.50
2019-06-26T21:00:46.983Z,30.50
2019-06-26T21:03:15.681Z,30.40
2019-06-26T21:05:44.686Z,30.30
2019-06-26T21:08:13.405Z,30.20
2019-06-26T21:10:42.045Z,30.20
2019-06-26T21:13:11.341Z,30.10
2019-06-26T21:15:40.044Z,30.10
2019-06-26T21:18:08.801Z,30.10
2019-06-26T21:20:37.748Z,30.00
2019-06-26T21:23:17.716Z,30.00
2019-06-26T21:25:37.604Z,30.00
2019-06-26T21:28:06.749Z,29.90
2019-06-26T21:30:35.716Z,29.80
2019-06-26T21:33:04.592Z,29.80
2019-06-26T21:35:33.492Z,29.70
2019-06-26T21:38:02.057Z,29.70
2019-06-26T21:40:30.968Z,29.60
2019-06-26T21:42:59.820Z,29.60
2019-06-26T21:45:28.748Z,29.50
2019-06-26T21:47:57.642Z,29.50
2019-06-26T21:50:28.823Z,29.40
2019-06-26T21:52:56.966Z,29.40
2019-06-26T21:55:34.280Z,29.40
2019-06-26T21:57:56.281Z,29.30
2019-06-26T22:00:25.074Z,29.30
2019-06-26T22:02:57.526Z,29.20
2019-06-26T22:05:25.002Z,29.20
2019-06-26T22:07:53.597Z,29.20
2019-06-26T22:10:22.597Z,29.10
2019-06-26T22:12:51.272Z,29.10
2019-06-26T22:15:19.969Z,29.00
2019-06-26T22:17:48.660Z,29.00
2019-06-26T22:20:17.346Z,28.90
2019-06-26T22:22:46.012Z,28.90
2019-06-26T22:25:14.721Z,28.80
2019-06-26T22:27:43.697Z,28.80
2019-06-26T22:30:12.920Z,28.70
2019-06-26T22:32:42.313Z,28.70
2019-06-26T22:35:10.990Z,28.70
2019-06-26T22:37:40.282Z,28.70
2019-06-26T22:40:09.165Z,28.60
2019-06-26T22:42:38.022Z,28.60
2019-06-26T22:45:07.362Z,28.50
2019-06-26T22:47:36.257Z,28.50
2019-06-26T22:50:05.214Z,28.50
2019-06-26T22:52:34.138Z,28.50
2019-06-26T22:55:03.648Z,28.40
2019-06-26T22:57:32.966Z,28.40
2019-06-26T23:00:01.550Z,28.40
2019-06-26T23:02:30.226Z,28.30
2019-06-26T23:04:59.212Z,28.30
2019-06-26T23:07:28.099Z,28.20
2019-06-26T23:09:56.706Z,28.20
2019-06-26T23:12:25.386Z,28.10
2019-06-26T23:14:54.366Z,28.10
2019-06-26T23:17:23.369Z,28.10
2019-06-26T23:19:52.353Z,28.10
2019-06-26T23:22:21.571Z,28.00
2019-06-26T23:24:50.251Z,27.90
2019-06-26T23:27:19.231Z,27.90
2019-06-26T23:29:48.066Z,27.90
2019-06-26T23:32:17.014Z,27.90
2019-06-26T23:34:46.220Z,27.90
2019-06-26T23:37:14.965Z,27.80
2019-06-26T23:39:43.935Z,27.80
2019-06-26T23:42:12.887Z,27.80
2019-06-26T23:44:42.191Z,27.70
2019-06-26T23:47:11.023Z,27.60
2019-06-26T23:49:40.586Z,27.60
2019-06-26T23:52:10.042Z,27.50
2019-06-26T23:54:39.406Z,27.40
2019-06-26T23:57:08.470Z,27.40
2019-06-26T23:59:37.182Z,27.30
